sensor_id;sensor_type;location;lat;lon;timestamp;P1;durP1;ratioP1;P2;durP2;ratioP2
51228;SDS011;37304;52.216;6.874;2023-06-26T00:04:04;8.00;;;4.82;;
51228;SDS011;37304;52.216;6.874;2023-06-26T00:09:04;6.90;;;4.60;;
51228;SDS011;37304;52.216;6.874;2023-06-26T00:14:04;6.93;;;4.87;;
51228;SDS011;37304;52.216;6.874;2023-06-26T00:19:06;7.32;;;4.55;;
51228;SDS011;37304;52.216;6.874;2023-06-26T00:24:06;7.00;;;5.20;;
51228;SDS011;37304;52.216;6.874;2023-06-26T00:29:07;6.97;;;4.83;;
51228;SDS011;37304;52.216;6.874;2023-06-26T00:34:07;7.47;;;5.00;;
51228;SDS011;37304;52.216;6.874;2023-06-26T00:39:07;7.17;;;4.60;;
51228;SDS011;37304;52.216;6.874;2023-06-26T00:44:08;7.00;;;5.10;;
51228;SDS011;37304;52.216;6.874;2023-06-26T00:49:08;5.73;;;4.80;;
51228;SDS011;37304;52.216;6.874;2023-06-26T00:54:09;10.57;;;5.18;;
51228;SDS011;37304;52.216;6.874;2023-06-26T00:59:10;8.75;;;5.07;;
51228;SDS011;37304;52.216;6.874;2023-06-26T01:04:10;7.37;;;4.97;;
51228;SDS011;37304;52.216;6.874;2023-06-26T01:09:17;7.95;;;4.75;;
51228;SDS011;37304;52.216;6.874;2023-06-26T01:14:19;6.50;;;4.82;;
51228;SDS011;37304;52.216;6.874;2023-06-26T01:19:20;7.78;;;5.68;;
51228;SDS011;37304;52.216;6.874;2023-06-26T01:24:31;6.72;;;4.95;;
51228;SDS011;37304;52.216;6.874;2023-06-26T01:29:36;6.82;;;5.03;;
51228;SDS011;37304;52.216;6.874;2023-06-26T01:34:38;7.68;;;5.18;;
51228;SDS011;37304;52.216;6.874;2023-06-26T01:39:39;8.35;;;4.90;;
51228;SDS011;37304;52.216;6.874;2023-06-26T01:44:42;7.73;;;4.97;;
51228;SDS011;37304;52.216;6.874;2023-06-26T01:55:35;9.43;;;5.55;;
51228;SDS011;37304;52.216;6.874;2023-06-26T02:00:44;8.32;;;5.13;;
51228;SDS011;37304;52.216;6.874;2023-06-26T02:05:45;8.50;;;5.40;;
51228;SDS011;37304;52.216;6.874;2023-06-26T02:10:45;8.73;;;5.75;;
51228;SDS011;37304;52.216;6.874;2023-06-26T02:15:46;10.47;;;6.00;;
51228;SDS011;37304;52.216;6.874;2023-06-26T02:20:46;9.50;;;6.07;;
51228;SDS011;37304;52.216;6.874;2023-06-26T02:25:47;10.73;;;6.63;;
51228;SDS011;37304;52.216;6.874;2023-06-26T02:30:47;8.60;;;6.07;;
51228;SDS011;37304;52.216;6.874;2023-06-26T02:35:47;7.93;;;5.43;;
51228;SDS011;37304;52.216;6.874;2023-06-26T02:40:50;10.48;;;5.53;;
51228;SDS011;37304;52.216;6.874;2023-06-26T02:45:50;11.90;;;6.43;;
51228;SDS011;37304;52.216;6.874;2023-06-26T02:50:51;9.63;;;5.57;;
51228;SDS011;37304;52.216;6.874;2023-06-26T02:55:51;7.30;;;5.50;;
51228;SDS011;37304;52.216;6.874;2023-06-26T03:00:52;8.60;;;6.30;;
51228;SDS011;37304;52.216;6.874;2023-06-26T03:05:53;8.93;;;6.05;;
51228;SDS011;37304;52.216;6.874;2023-06-26T03:10:54;9.90;;;6.43;;
51228;SDS011;37304;52.216;6.874;2023-06-26T03:15:54;8.17;;;6.33;;
51228;SDS011;37304;52.216;6.874;2023-06-26T03:20:55;10.33;;;6.37;;
51228;SDS011;37304;52.216;6.874;2023-06-26T03:25:56;7.97;;;5.78;;
51228;SDS011;37304;52.216;6.874;2023-06-26T03:30:56;8.38;;;6.00;;
51228;SDS011;37304;52.216;6.874;2023-06-26T03:35:57;9.40;;;6.78;;
51228;SDS011;37304;52.216;6.874;2023-06-26T03:40:59;9.63;;;6.68;;
51228;SDS011;37304;52.216;6.874;2023-06-26T03:45:59;11.47;;;7.00;;
51228;SDS011;37304;52.216;6.874;2023-06-26T03:50:59;10.57;;;7.30;;
51228;SDS011;37304;52.216;6.874;2023-06-26T03:56:02;11.18;;;7.28;;
51228;SDS011;37304;52.216;6.874;2023-06-26T04:01:02;10.73;;;7.30;;
51228;SDS011;37304;52.216;6.874;2023-06-26T04:06:03;10.27;;;7.47;;
51228;SDS011;37304;52.216;6.874;2023-06-26T04:11:03;14.77;;;8.10;;
51228;SDS011;37304;52.216;6.874;2023-06-26T04:16:04;11.50;;;7.80;;
51228;SDS011;37304;52.216;6.874;2023-06-26T04:21:09;10.65;;;7.65;;
51228;SDS011;37304;52.216;6.874;2023-06-26T04:26:13;14.25;;;7.63;;
51228;SDS011;37304;52.216;6.874;2023-06-26T04:31:14;15.50;;;7.35;;
51228;SDS011;37304;52.216;6.874;2023-06-26T04:36:15;10.63;;;6.90;;
51228;SDS011;37304;52.216;6.874;2023-06-26T04:41:16;11.18;;;7.13;;
51228;SDS011;37304;52.216;6.874;2023-06-26T04:46:16;10.30;;;6.30;;
51228;SDS011;37304;52.216;6.874;2023-06-26T04:51:17;9.73;;;6.17;;
51228;SDS011;37304;52.216;6.874;2023-06-26T04:56:21;8.80;;;5.75;;
51228;SDS011;37304;52.216;6.874;2023-06-26T05:01:21;10.37;;;6.27;;
51228;SDS011;37304;52.216;6.874;2023-06-26T05:06:22;9.70;;;6.10;;
51228;SDS011;37304;52.216;6.874;2023-06-26T05:11:23;11.63;;;6.00;;
51228;SDS011;37304;52.216;6.874;2023-06-26T05:16:25;9.25;;;5.65;;
51228;SDS011;37304;52.216;6.874;2023-06-26T05:21:26;10.95;;;4.97;;
51228;SDS011;37304;52.216;6.874;2023-06-26T05:26:27;13.15;;;4.30;;
51228;SDS011;37304;52.216;6.874;2023-06-26T05:31:27;6.53;;;4.25;;
51228;SDS011;37304;52.216;6.874;2023-06-26T05:36:30;11.30;;;4.68;;
51228;SDS011;37304;52.216;6.874;2023-06-26T05:41:33;8.02;;;3.30;;
51228;SDS011;37304;52.216;6.874;2023-06-26T05:46:34;6.25;;;3.30;;
51228;SDS011;37304;52.216;6.874;2023-06-26T05:51:35;6.30;;;3.23;;
51228;SDS011;37304;52.216;6.874;2023-06-26T05:56:36;8.80;;;3.70;;
51228;SDS011;37304;52.216;6.874;2023-06-26T06:01:36;10.27;;;4.03;;
51228;SDS011;37304;52.216;6.874;2023-06-26T06:06:37;9.37;;;3.47;;
51228;SDS011;37304;52.216;6.874;2023-06-26T06:11:37;6.23;;;3.37;;
51228;SDS011;37304;52.216;6.874;2023-06-26T06:16:37;8.50;;;3.63;;
51228;SDS011;37304;52.216;6.874;2023-06-26T06:21:38;9.00;;;3.63;;
51228;SDS011;37304;52.216;6.874;2023-06-26T06:26:38;10.83;;;4.20;;
51228;SDS011;37304;52.216;6.874;2023-06-26T06:31:38;12.00;;;3.73;;
51228;SDS011;37304;52.216;6.874;2023-06-26T06:36:39;9.33;;;3.80;;
51228;SDS011;37304;52.216;6.874;2023-06-26T06:41:39;11.50;;;3.55;;
51228;SDS011;37304;52.216;6.874;2023-06-26T06:46:40;11.47;;;3.83;;
51228;SDS011;37304;52.216;6.874;2023-06-26T06:51:40;7.60;;;3.23;;
51228;SDS011;37304;52.216;6.874;2023-06-26T06:56:40;8.53;;;3.47;;
51228;SDS011;37304;52.216;6.874;2023-06-26T07:01:41;9.27;;;3.83;;
51228;SDS011;37304;52.216;6.874;2023-06-26T07:06:41;12.30;;;4.03;;
51228;SDS011;37304;52.216;6.874;2023-06-26T07:11:41;11.90;;;3.90;;
51228;SDS011;37304;52.216;6.874;2023-06-26T07:16:42;6.13;;;2.70;;
51228;SDS011;37304;52.216;6.874;2023-06-26T07:21:42;7.10;;;2.87;;
51228;SDS011;37304;52.216;6.874;2023-06-26T07:26:44;7.43;;;2.58;;
51228;SDS011;37304;52.216;6.874;2023-06-26T07:31:45;7.03;;;2.83;;
51228;SDS011;37304;52.216;6.874;2023-06-26T07:36:45;7.20;;;2.83;;
51228;SDS011;37304;52.216;6.874;2023-06-26T07:41:45;9.73;;;2.80;;
51228;SDS011;37304;52.216;6.874;2023-06-26T07:46:46;7.23;;;2.70;;
51228;SDS011;37304;52.216;6.874;2023-06-26T07:51:46;3.97;;;1.60;;
51228;SDS011;37304;52.216;6.874;2023-06-26T07:56:54;2.40;;;1.52;;
51228;SDS011;37304;52.216;6.874;2023-06-26T08:01:56;6.05;;;1.45;;
51228;SDS011;37304;52.216;6.874;2023-06-26T08:06:58;2.35;;;1.20;;
51228;SDS011;37304;52.216;6.874;2023-06-26T08:11:59;4.85;;;1.02;;
51228;SDS011;37304;52.216;6.874;2023-06-26T08:17:00;2.70;;;1.40;;
51228;SDS011;37304;52.216;6.874;2023-06-26T08:22:00;2.27;;;1.10;;
51228;SDS011;37304;52.216;6.874;2023-06-26T08:27:00;1.80;;;1.20;;
51228;SDS011;37304;52.216;6.874;2023-06-26T08:32:01;1.17;;;1.00;;
51228;SDS011;37304;52.216;6.874;2023-06-26T08:37:02;3.97;;;1.30;;
51228;SDS011;37304;52.216;6.874;2023-06-26T08:42:02;1.83;;;1.15;;
51228;SDS011;37304;52.216;6.874;2023-06-26T08:47:03;5.20;;;1.50;;
51228;SDS011;37304;52.216;6.874;2023-06-26T08:52:07;6.28;;;1.70;;
51228;SDS011;37304;52.216;6.874;2023-06-26T08:57:20;6.75;;;1.98;;
51228;SDS011;37304;52.216;6.874;2023-06-26T09:02:24;3.92;;;1.45;;
51228;SDS011;37304;52.216;6.874;2023-06-26T09:07:25;2.67;;;1.17;;
51228;SDS011;37304;52.216;6.874;2023-06-26T09:12:29;5.10;;;1.30;;
51228;SDS011;37304;52.216;6.874;2023-06-26T09:17:30;3.17;;;1.33;;
51228;SDS011;37304;52.216;6.874;2023-06-26T09:22:33;4.47;;;1.55;;
51228;SDS011;37304;52.216;6.874;2023-06-26T09:27:35;3.83;;;1.80;;
51228;SDS011;37304;52.216;6.874;2023-06-26T09:32:36;2.30;;;1.30;;
51228;SDS011;37304;52.216;6.874;2023-06-26T09:37:37;2.38;;;1.50;;
51228;SDS011;37304;52.216;6.874;2023-06-26T09:42:38;3.05;;;1.45;;
51228;SDS011;37304;52.216;6.874;2023-06-26T09:47:38;2.78;;;1.52;;
51228;SDS011;37304;52.216;6.874;2023-06-26T09:52:44;6.28;;;1.38;;
51228;SDS011;37304;52.216;6.874;2023-06-26T09:57:45;1.97;;;1.40;;
51228;SDS011;37304;52.216;6.874;2023-06-26T10:02:47;2.90;;;1.27;;
51228;SDS011;37304;52.216;6.874;2023-06-26T10:07:47;2.60;;;1.07;;
51228;SDS011;37304;52.216;6.874;2023-06-26T10:12:48;2.83;;;1.30;;
51228;SDS011;37304;52.216;6.874;2023-06-26T10:17:51;3.88;;;1.67;;
51228;SDS011;37304;52.216;6.874;2023-06-26T10:22:55;2.85;;;1.33;;
51228;SDS011;37304;52.216;6.874;2023-06-26T10:28:01;2.72;;;1.48;;
51228;SDS011;37304;52.216;6.874;2023-06-26T10:33:03;4.30;;;1.60;;
51228;SDS011;37304;52.216;6.874;2023-06-26T10:38:04;1.80;;;1.30;;
51228;SDS011;37304;52.216;6.874;2023-06-26T10:43:08;3.50;;;1.40;;
51228;SDS011;37304;52.216;6.874;2023-06-26T10:48:09;4.47;;;1.60;;
51228;SDS011;37304;52.216;6.874;2023-06-26T10:58:40;3.42;;;1.20;;
51228;SDS011;37304;52.216;6.874;2023-06-26T11:03:44;1.75;;;1.05;;
51228;SDS011;37304;52.216;6.874;2023-06-26T11:08:47;3.50;;;1.15;;
51228;SDS011;37304;52.216;6.874;2023-06-26T11:13:48;2.45;;;1.10;;
51228;SDS011;37304;52.216;6.874;2023-06-26T11:18:49;4.93;;;1.23;;
51228;SDS011;37304;52.216;6.874;2023-06-26T11:23:50;2.05;;;0.93;;
51228;SDS011;37304;52.216;6.874;2023-06-26T11:28:54;3.70;;;0.90;;
51228;SDS011;37304;52.216;6.874;2023-06-26T11:33:56;1.80;;;0.70;;
51228;SDS011;37304;52.216;6.874;2023-06-26T11:39:03;3.03;;;0.88;;
51228;SDS011;37304;52.216;6.874;2023-06-26T11:44:09;2.88;;;1.00;;
51228;SDS011;37304;52.216;6.874;2023-06-26T11:49:10;1.33;;;0.65;;
51228;SDS011;37304;52.216;6.874;2023-06-26T11:54:10;2.75;;;0.70;;
51228;SDS011;37304;52.216;6.874;2023-06-26T11:59:12;4.32;;;0.70;;
51228;SDS011;37304;52.216;6.874;2023-06-26T12:04:14;1.23;;;0.60;;
51228;SDS011;37304;52.216;6.874;2023-06-26T12:09:18;1.58;;;0.80;;
51228;SDS011;37304;52.216;6.874;2023-06-26T12:14:19;3.60;;;0.80;;
51228;SDS011;37304;52.216;6.874;2023-06-26T12:19:25;3.42;;;0.75;;
51228;SDS011;37304;52.216;6.874;2023-06-26T12:24:27;3.72;;;1.13;;
51228;SDS011;37304;52.216;6.874;2023-06-26T12:29:33;2.53;;;0.82;;
51228;SDS011;37304;52.216;6.874;2023-06-26T12:34:36;3.70;;;0.90;;
51228;SDS011;37304;52.216;6.874;2023-06-26T12:44:51;1.08;;;0.80;;
51228;SDS011;37304;52.216;6.874;2023-06-26T12:49:53;1.38;;;0.98;;
51228;SDS011;37304;52.216;6.874;2023-06-26T12:54:54;3.40;;;0.90;;
51228;SDS011;37304;52.216;6.874;2023-06-26T12:59:56;2.78;;;1.00;;
51228;SDS011;37304;52.216;6.874;2023-06-26T13:04:56;0.83;;;0.60;;
51228;SDS011;37304;52.216;6.874;2023-06-26T13:09:56;2.27;;;0.80;;
51228;SDS011;37304;52.216;6.874;2023-06-26T13:14:57;2.10;;;0.60;;
51228;SDS011;37304;52.216;6.874;2023-06-26T13:19:57;1.53;;;0.57;;
51228;SDS011;37304;52.216;6.874;2023-06-26T13:24:58;2.40;;;0.70;;
51228;SDS011;37304;52.216;6.874;2023-06-26T13:29:58;0.97;;;0.63;;
51228;SDS011;37304;52.216;6.874;2023-06-26T13:34:58;1.43;;;0.70;;
51228;SDS011;37304;52.216;6.874;2023-06-26T13:39:59;1.23;;;0.50;;
51228;SDS011;37304;52.216;6.874;2023-06-26T13:45:01;0.68;;;0.55;;
51228;SDS011;37304;52.216;6.874;2023-06-26T13:50:03;2.33;;;0.73;;
51228;SDS011;37304;52.216;6.874;2023-06-26T13:55:04;2.38;;;0.63;;
51228;SDS011;37304;52.216;6.874;2023-06-26T14:00:14;3.72;;;0.80;;
51228;SDS011;37304;52.216;6.874;2023-06-26T14:05:19;0.63;;;0.60;;
51228;SDS011;37304;52.216;6.874;2023-06-26T14:10:21;2.38;;;0.60;;
51228;SDS011;37304;52.216;6.874;2023-06-26T14:15:22;2.92;;;0.50;;
51228;SDS011;37304;52.216;6.874;2023-06-26T14:20:23;0.37;;;0.20;;
51228;SDS011;37304;52.216;6.874;2023-06-26T14:25:24;1.40;;;0.50;;
51228;SDS011;37304;52.216;6.874;2023-06-26T14:30:26;3.88;;;0.75;;
51228;SDS011;37304;52.216;6.874;2023-06-26T14:35:26;2.53;;;0.80;;
51228;SDS011;37304;52.216;6.874;2023-06-26T14:40:27;1.60;;;0.50;;
51228;SDS011;37304;52.216;6.874;2023-06-26T14:45:27;4.07;;;0.40;;
51228;SDS011;37304;52.216;6.874;2023-06-26T14:50:27;4.97;;;0.60;;
51228;SDS011;37304;52.216;6.874;2023-06-26T14:55:28;2.57;;;0.70;;
51228;SDS011;37304;52.216;6.874;2023-06-26T15:00:28;2.83;;;0.60;;
51228;SDS011;37304;52.216;6.874;2023-06-26T15:05:29;2.77;;;0.60;;
51228;SDS011;37304;52.216;6.874;2023-06-26T15:10:29;3.70;;;0.97;;
51228;SDS011;37304;52.216;6.874;2023-06-26T15:15:29;2.13;;;0.73;;
51228;SDS011;37304;52.216;6.874;2023-06-26T15:20:30;6.30;;;0.53;;
51228;SDS011;37304;52.216;6.874;2023-06-26T15:25:30;1.03;;;0.40;;
51228;SDS011;37304;52.216;6.874;2023-06-26T15:30:32;1.40;;;0.57;;
51228;SDS011;37304;52.216;6.874;2023-06-26T15:35:32;6.35;;;0.70;;
51228;SDS011;37304;52.216;6.874;2023-06-26T15:40:33;2.77;;;0.67;;
51228;SDS011;37304;52.216;6.874;2023-06-26T15:45:33;1.07;;;0.33;;
51228;SDS011;37304;52.216;6.874;2023-06-26T15:50:34;1.67;;;0.40;;
51228;SDS011;37304;52.216;6.874;2023-06-26T15:55:34;2.50;;;0.50;;
51228;SDS011;37304;52.216;6.874;2023-06-26T16:00:34;1.73;;;0.40;;
51228;SDS011;37304;52.216;6.874;2023-06-26T16:05:35;1.37;;;0.50;;
51228;SDS011;37304;52.216;6.874;2023-06-26T16:10:35;1.13;;;0.50;;
51228;SDS011;37304;52.216;6.874;2023-06-26T16:15:35;1.07;;;0.40;;
51228;SDS011;37304;52.216;6.874;2023-06-26T16:20:36;0.60;;;0.30;;
51228;SDS011;37304;52.216;6.874;2023-06-26T16:25:36;1.60;;;0.50;;
51228;SDS011;37304;52.216;6.874;2023-06-26T16:30:37;0.50;;;0.50;;
51228;SDS011;37304;52.216;6.874;2023-06-26T16:35:37;2.87;;;0.53;;
51228;SDS011;37304;52.216;6.874;2023-06-26T16:40:37;1.50;;;0.50;;
51228;SDS011;37304;52.216;6.874;2023-06-26T16:45:38;1.07;;;0.50;;
51228;SDS011;37304;52.216;6.874;2023-06-26T16:50:38;2.33;;;0.47;;
51228;SDS011;37304;52.216;6.874;2023-06-26T16:55:38;0.73;;;0.40;;
51228;SDS011;37304;52.216;6.874;2023-06-26T17:00:39;6.33;;;0.53;;
51228;SDS011;37304;52.216;6.874;2023-06-26T17:05:39;1.83;;;0.55;;
51228;SDS011;37304;52.216;6.874;2023-06-26T17:10:40;2.50;;;0.23;;
51228;SDS011;37304;52.216;6.874;2023-06-26T17:15:42;2.17;;;0.73;;
51228;SDS011;37304;52.216;6.874;2023-06-26T17:20:42;1.00;;;0.60;;
51228;SDS011;37304;52.216;6.874;2023-06-26T17:25:43;3.40;;;0.55;;
51228;SDS011;37304;52.216;6.874;2023-06-26T17:30:43;0.70;;;0.53;;
51228;SDS011;37304;52.216;6.874;2023-06-26T17:35:45;1.08;;;0.52;;
51228;SDS011;37304;52.216;6.874;2023-06-26T17:40:45;1.47;;;0.63;;
51228;SDS011;37304;52.216;6.874;2023-06-26T17:45:47;0.75;;;0.40;;
51228;SDS011;37304;52.216;6.874;2023-06-26T17:50:48;1.27;;;0.60;;
51228;SDS011;37304;52.216;6.874;2023-06-26T17:55:49;1.75;;;0.43;;
51228;SDS011;37304;52.216;6.874;2023-06-26T18:00:50;3.07;;;0.90;;
51228;SDS011;37304;52.216;6.874;2023-06-26T18:05:51;1.60;;;0.70;;
51228;SDS011;37304;52.216;6.874;2023-06-26T18:10:52;0.73;;;0.57;;
51228;SDS011;37304;52.216;6.874;2023-06-26T18:15:52;1.67;;;0.70;;
51228;SDS011;37304;52.216;6.874;2023-06-26T18:20:58;0.93;;;0.50;;
51228;SDS011;37304;52.216;6.874;2023-06-26T18:26:02;1.33;;;0.43;;
51228;SDS011;37304;52.216;6.874;2023-06-26T18:31:02;1.33;;;0.60;;
51228;SDS011;37304;52.216;6.874;2023-06-26T18:36:05;2.42;;;0.63;;
51228;SDS011;37304;52.216;6.874;2023-06-26T18:41:08;3.08;;;0.80;;
51228;SDS011;37304;52.216;6.874;2023-06-26T18:46:09;0.90;;;0.55;;
51228;SDS011;37304;52.216;6.874;2023-06-26T18:51:11;2.17;;;0.50;;
51228;SDS011;37304;52.216;6.874;2023-06-26T18:56:11;0.63;;;0.47;;
51228;SDS011;37304;52.216;6.874;2023-06-26T19:01:11;2.03;;;0.95;;
51228;SDS011;37304;52.216;6.874;2023-06-26T19:06:12;2.10;;;0.70;;
51228;SDS011;37304;52.216;6.874;2023-06-26T19:11:13;1.17;;;0.50;;
51228;SDS011;37304;52.216;6.874;2023-06-26T19:16:14;6.82;;;0.85;;
51228;SDS011;37304;52.216;6.874;2023-06-26T19:21:14;4.17;;;0.77;;
51228;SDS011;37304;52.216;6.874;2023-06-26T19:26:15;4.07;;;0.75;;
51228;SDS011;37304;52.216;6.874;2023-06-26T19:31:15;2.25;;;0.68;;
51228;SDS011;37304;52.216;6.874;2023-06-26T19:36:17;1.45;;;0.35;;
51228;SDS011;37304;52.216;6.874;2023-06-26T19:41:20;4.35;;;0.55;;
51228;SDS011;37304;52.216;6.874;2023-06-26T19:46:20;0.40;;;0.40;;
51228;SDS011;37304;52.216;6.874;2023-06-26T19:51:21;2.07;;;0.77;;
51228;SDS011;37304;52.216;6.874;2023-06-26T19:56:21;2.13;;;0.63;;
51228;SDS011;37304;52.216;6.874;2023-06-26T20:01:25;3.83;;;0.70;;
51228;SDS011;37304;52.216;6.874;2023-06-26T20:06:26;2.63;;;0.73;;
51228;SDS011;37304;52.216;6.874;2023-06-26T20:11:27;0.80;;;0.40;;
51228;SDS011;37304;52.216;6.874;2023-06-26T20:16:27;0.83;;;0.43;;
51228;SDS011;37304;52.216;6.874;2023-06-26T20:21:29;2.28;;;1.00;;
51228;SDS011;37304;52.216;6.874;2023-06-26T20:26:29;5.30;;;1.00;;
51228;SDS011;37304;52.216;6.874;2023-06-26T20:31:30;1.77;;;0.70;;
51228;SDS011;37304;52.216;6.874;2023-06-26T20:36:33;3.90;;;0.80;;
51228;SDS011;37304;52.216;6.874;2023-06-26T20:41:36;4.03;;;0.80;;
51228;SDS011;37304;52.216;6.874;2023-06-26T20:46:37;4.72;;;0.88;;
51228;SDS011;37304;52.216;6.874;2023-06-26T20:51:38;1.90;;;0.70;;
51228;SDS011;37304;52.216;6.874;2023-06-26T20:56:38;1.92;;;0.80;;
51228;SDS011;37304;52.216;6.874;2023-06-26T21:01:39;1.93;;;0.70;;
51228;SDS011;37304;52.216;6.874;2023-06-26T21:06:39;5.13;;;0.63;;
51228;SDS011;37304;52.216;6.874;2023-06-26T21:11:41;3.42;;;0.88;;
51228;SDS011;37304;52.216;6.874;2023-06-26T21:16:41;3.97;;;1.10;;
51228;SDS011;37304;52.216;6.874;2023-06-26T21:21:42;4.70;;;1.00;;
51228;SDS011;37304;52.216;6.874;2023-06-26T21:26:42;2.83;;;0.90;;
51228;SDS011;37304;52.216;6.874;2023-06-26T21:31:42;3.27;;;0.70;;
51228;SDS011;37304;52.216;6.874;2023-06-26T21:36:43;2.00;;;0.70;;
51228;SDS011;37304;52.216;6.874;2023-06-26T21:41:43;1.33;;;0.80;;
51228;SDS011;37304;52.216;6.874;2023-06-26T21:46:44;7.65;;;1.10;;
51228;SDS011;37304;52.216;6.874;2023-06-26T21:51:45;3.85;;;0.63;;
51228;SDS011;37304;52.216;6.874;2023-06-26T21:56:45;3.17;;;1.00;;
51228;SDS011;37304;52.216;6.874;2023-06-26T22:01:45;2.20;;;0.90;;
51228;SDS011;37304;52.216;6.874;2023-06-26T22:06:46;1.50;;;0.95;;
51228;SDS011;37304;52.216;6.874;2023-06-26T22:11:47;2.50;;;0.80;;
51228;SDS011;37304;52.216;6.874;2023-06-26T22:16:47;4.83;;;2.17;;
51228;SDS011;37304;52.216;6.874;2023-06-26T22:21:47;6.30;;;0.80;;
51228;SDS011;37304;52.216;6.874;2023-06-26T22:26:48;1.15;;;0.73;;
51228;SDS011;37304;52.216;6.874;2023-06-26T22:31:48;2.13;;;0.63;;
51228;SDS011;37304;52.216;6.874;2023-06-26T22:36:49;2.57;;;0.97;;
51228;SDS011;37304;52.216;6.874;2023-06-26T22:41:49;3.50;;;0.93;;
51228;SDS011;37304;52.216;6.874;2023-06-26T22:46:49;4.43;;;1.50;;
51228;SDS011;37304;52.216;6.874;2023-06-26T22:51:50;4.43;;;1.70;;
51228;SDS011;37304;52.216;6.874;2023-06-26T22:56:50;4.80;;;1.30;;
51228;SDS011;37304;52.216;6.874;2023-06-26T23:01:50;2.60;;;1.10;;
51228;SDS011;37304;52.216;6.874;2023-06-26T23:06:51;9.00;;;1.43;;
51228;SDS011;37304;52.216;6.874;2023-06-26T23:11:56;6.07;;;1.83;;
51228;SDS011;37304;52.216;6.874;2023-06-26T23:16:57;5.20;;;1.57;;
51228;SDS011;37304;52.216;6.874;2023-06-26T23:22:04;4.80;;;1.35;;
51228;SDS011;37304;52.216;6.874;2023-06-26T23:27:09;4.38;;;1.50;;
51228;SDS011;37304;52.216;6.874;2023-06-26T23:32:11;2.88;;;1.10;;
51228;SDS011;37304;52.216;6.874;2023-06-26T23:37:11;1.38;;;1.00;;
51228;SDS011;37304;52.216;6.874;2023-06-26T23:42:12;4.47;;;1.63;;
51228;SDS011;37304;52.216;6.874;2023-06-26T23:47:15;5.97;;;1.75;;
51228;SDS011;37304;52.216;6.874;2023-06-26T23:52:17;2.47;;;0.98;;
51228;SDS011;37304;52.216;6.874;2023-06-26T23:57:17;5.13;;;1.43;;
